Terminal Aerodrome Forecast
Issued by NWS Medford, OR

Home | Current Version | Previous Version | Text Only | Print | Product List | Glossary On
Versions: 1 2 3 4 5 6 7 8 9 10 11 12 13
000
FTUS46 KMFR 061140
TAFMFR
TAF
KMFR 061140Z 0612/0712 00000KT P6SM SKC
     FM061900 33007G13KT P6SM SCT050
     FM062300 34015G25KT P6SM VCSH BKN050
     FM070400 34006KT P6SM BKN040=

USA.gov is the U.S. government's official web portal to all federal, state and local government web resources and services.